createdAt,value
2018-03-04T00:00:54.464Z,36.00
2018-03-04T00:03:20.733Z,36.11
2018-03-04T00:05:46.939Z,36.17
2018-03-04T00:08:13.276Z,36.00
2018-03-04T00:10:40.531Z,36.13
2018-03-04T00:13:06.751Z,36.17
2018-03-04T00:15:33.014Z,36.27
2018-03-04T00:17:59.248Z,36.32
2018-03-04T00:20:25.499Z,36.46
2018-03-04T00:22:51.763Z,36.42
2018-03-04T00:25:18.852Z,36.48
2018-03-04T00:27:45.096Z,36.59
2018-03-04T00:30:11.364Z,36.46
2018-03-04T00:32:37.607Z,36.42
2018-03-04T00:35:03.839Z,36.48
2018-03-04T00:37:30.090Z,36.64
2018-03-04T00:39:56.354Z,36.67
2018-03-04T00:42:22.572Z,36.78
2018-03-04T00:44:48.819Z,36.82
2018-03-04T00:47:15.379Z,36.79
2018-03-04T00:49:41.627Z,36.75
2018-03-04T00:52:07.866Z,36.76
2018-03-04T00:54:34.104Z,36.73
2018-03-04T00:57:00.318Z,36.68
2018-03-04T00:59:26.690Z,37.05
2018-03-04T01:01:52.911Z,37.21
2018-03-04T01:04:19.170Z,37.19
2018-03-04T01:06:45.431Z,37.09
2018-03-04T01:09:11.659Z,37.34
2018-03-04T01:11:37.884Z,37.54
2018-03-04T01:14:04.151Z,37.54
2018-03-04T01:16:30.384Z,37.48
2018-03-04T01:18:56.646Z,37.55
2018-03-04T01:21:22.900Z,37.49
2018-03-04T01:23:49.115Z,37.52
2018-03-04T01:26:15.323Z,37.65
2018-03-04T01:28:41.564Z,37.60
2018-03-04T01:31:07.956Z,37.51
2018-03-04T01:33:34.178Z,37.59
2018-03-04T01:36:00.467Z,37.61
2018-03-04T01:38:26.720Z,37.51
2018-03-04T01:40:52.950Z,37.52
2018-03-04T01:43:19.594Z,37.38
2018-03-04T01:45:45.815Z,37.44
2018-03-04T01:48:12.040Z,37.62
2018-03-04T01:50:38.299Z,37.57
2018-03-04T01:53:04.512Z,37.53
2018-03-04T01:55:30.896Z,37.48
2018-03-04T01:57:57.176Z,37.49
2018-03-04T02:00:23.383Z,37.35
2018-03-04T02:02:49.843Z,37.28
2018-03-04T02:05:16.159Z,37.28
2018-03-04T02:07:42.481Z,37.38
2018-03-04T02:10:08.732Z,37.61
2018-03-04T02:12:35.163Z,37.54
2018-03-04T02:15:01.600Z,37.57
2018-03-04T02:17:27.824Z,37.64
2018-03-04T02:19:54.067Z,37.72
2018-03-04T02:22:20.290Z,37.79
2018-03-04T02:24:46.503Z,37.82
2018-03-04T02:27:12.865Z,38.11
2018-03-04T02:29:39.227Z,38.28
2018-03-04T02:32:05.449Z,38.25
2018-03-04T02:34:31.863Z,38.33
2018-03-04T02:36:58.085Z,38.21
2018-03-04T02:39:24.455Z,38.10
2018-03-04T02:41:50.748Z,38.37
2018-03-04T02:44:16.963Z,38.31
2018-03-04T02:46:43.380Z,38.26
2018-03-04T02:49:09.626Z,38.58
2018-03-04T02:51:35.851Z,38.54
2018-03-04T02:54:02.167Z,38.75
2018-03-04T02:56:28.424Z,38.66
2018-03-04T02:58:54.780Z,38.55
2018-03-04T03:01:21.020Z,38.60
2018-03-04T03:03:47.295Z,38.88
2018-03-04T03:06:13.805Z,39.00
2018-03-04T03:08:40.206Z,39.17
2018-03-04T03:11:06.565Z,39.17
2018-03-04T03:13:32.855Z,39.31
2018-03-04T03:15:59.155Z,39.57
2018-03-04T03:18:25.591Z,39.69
2018-03-04T03:20:51.823Z,39.81
2018-03-04T03:23:18.037Z,39.97
2018-03-04T03:25:44.281Z,40.02
2018-03-04T03:28:10.495Z,40.13
2018-03-04T03:30:36.807Z,40.28
2018-03-04T03:33:03.099Z,40.41
2018-03-04T03:35:29.392Z,40.36
2018-03-04T03:37:55.773Z,40.46
2018-03-04T03:40:22.017Z,40.60
2018-03-04T03:42:48.231Z,40.79
2018-03-04T03:45:14.443Z,40.91
2018-03-04T03:47:40.710Z,40.90
2018-03-04T03:50:07.123Z,40.98
2018-03-04T03:52:33.331Z,40.98
2018-03-04T03:54:59.570Z,40.97
2018-03-04T03:57:25.924Z,40.90
2018-03-04T03:59:52.127Z,40.84
2018-03-04T04:02:18.403Z,40.87
2018-03-04T04:04:44.651Z,40.95
2018-03-04T04:07:10.895Z,41.08
2018-03-04T04:09:37.339Z,41.06
2018-03-04T04:12:03.564Z,41.14
2018-03-04T04:14:29.778Z,41.25
2018-03-04T04:16:56.082Z,41.27
2018-03-04T04:19:22.302Z,41.43
2018-03-04T04:21:48.607Z,41.46
2018-03-04T04:24:14.875Z,41.44
2018-03-04T04:26:41.092Z,41.69
2018-03-04T04:29:07.375Z,41.74
2018-03-04T04:31:33.628Z,41.87
2018-03-04T04:33:59.847Z,42.05
2018-03-04T04:36:26.112Z,42.36
2018-03-04T04:38:52.356Z,42.17
2018-03-04T04:41:18.672Z,42.07
2018-03-04T04:43:44.902Z,42.19
2018-03-04T04:46:11.143Z,42.22
2018-03-04T04:48:37.580Z,42.41
2018-03-04T04:51:03.827Z,42.31
2018-03-04T04:53:30.079Z,42.35
2018-03-04T04:55:56.417Z,42.42
2018-03-04T04:58:22.660Z,42.51
2018-03-04T05:00:49.118Z,42.57
2018-03-04T05:03:15.355Z,42.70
2018-03-04T05:05:41.591Z,42.70
2018-03-04T05:08:07.912Z,42.71
2018-03-04T05:10:34.159Z,42.79
2018-03-04T05:13:00.382Z,42.92
2018-03-04T05:15:26.643Z,43.01
2018-03-04T05:17:52.855Z,43.00
2018-03-04T05:20:19.281Z,43.01
2018-03-04T05:22:45.536Z,43.09
2018-03-04T05:25:11.780Z,43.23
2018-03-04T05:27:38.076Z,43.14
2018-03-04T05:30:04.331Z,43.19
2018-03-04T05:32:30.618Z,43.22
2018-03-04T05:34:56.863Z,43.20
2018-03-04T05:37:23.160Z,43.12
2018-03-04T05:39:49.423Z,43.34
2018-03-04T05:42:15.639Z,43.44
2018-03-04T05:44:41.948Z,43.50
2018-03-04T05:47:08.268Z,43.70
2018-03-04T05:49:34.513Z,43.99
2018-03-04T05:52:00.868Z,44.36
2018-03-04T05:54:27.119Z,44.46
2018-03-04T05:56:53.348Z,45.03
2018-03-04T05:59:19.751Z,44.77
2018-03-04T06:01:45.987Z,44.82
2018-03-04T06:04:12.211Z,45.00
2018-03-04T06:06:38.456Z,45.03
2018-03-04T06:09:04.675Z,44.84
2018-03-04T06:11:31.095Z,44.75
2018-03-04T06:13:57.385Z,45.02
2018-03-04T06:16:23.610Z,45.19
2018-03-04T06:18:49.855Z,45.28
2018-03-04T06:21:16.155Z,45.62
2018-03-04T06:23:42.569Z,45.45
2018-03-04T06:26:08.819Z,45.39
2018-03-04T06:28:35.095Z,45.27
2018-03-04T06:31:01.560Z,45.22
2018-03-04T06:33:27.815Z,44.96
2018-03-04T06:35:54.043Z,44.65
2018-03-04T06:38:20.288Z,44.48
2018-03-04T06:40:46.524Z,44.53
2018-03-04T06:43:12.898Z,44.40
2018-03-04T06:45:39.158Z,44.11
2018-03-04T06:48:05.401Z,44.27
2018-03-04T06:50:31.844Z,44.23
2018-03-04T06:52:58.075Z,44.19
2018-03-04T06:55:24.335Z,44.28
2018-03-04T06:57:50.588Z,44.34
2018-03-04T07:00:16.821Z,44.47
2018-03-04T07:02:43.293Z,44.30
2018-03-04T07:05:09.551Z,44.21
2018-03-04T07:07:35.773Z,44.47
2018-03-04T07:10:02.094Z,43.81
2018-03-04T07:12:28.335Z,43.69
2018-03-04T07:14:54.586Z,43.45
2018-03-04T07:17:20.843Z,43.12
2018-03-04T07:19:47.083Z,42.83
2018-03-04T07:22:13.472Z,42.30
2018-03-04T07:24:39.767Z,42.11
2018-03-04T07:27:06.012Z,41.63
2018-03-04T07:29:32.284Z,41.22
2018-03-04T07:31:58.521Z,40.48
2018-03-04T07:34:24.868Z,39.55
2018-03-04T07:36:51.095Z,38.17
2018-03-04T07:39:17.316Z,37.18
2018-03-04T07:41:43.836Z,36.40
2018-03-04T07:44:10.063Z,35.40
2018-03-04T07:46:36.296Z,34.53
2018-03-04T07:49:02.536Z,33.93
2018-03-04T07:51:28.743Z,33.29
2018-03-04T07:53:56.240Z,33.53
2018-03-04T07:56:22.489Z,33.20
2018-03-04T07:58:48.997Z,33.02
2018-03-04T08:01:15.223Z,33.09
2018-03-04T08:03:41.467Z,32.66
2018-03-04T08:06:07.866Z,31.43
2018-03-04T08:08:34.071Z,30.30
2018-03-04T08:11:00.307Z,29.78
2018-03-04T08:13:26.527Z,30.19
2018-03-04T08:15:52.756Z,29.88
2018-03-04T08:18:19.158Z,29.25
2018-03-04T08:20:45.391Z,29.14
2018-03-04T08:23:11.624Z,28.27
2018-03-04T08:25:38.093Z,27.57
2018-03-04T08:28:16.323Z,26.87
2018-03-04T08:30:42.635Z,26.47
2018-03-04T08:33:08.869Z,26.64
2018-03-04T08:35:35.080Z,25.98
2018-03-04T08:38:01.516Z,26.29
2018-03-04T08:40:27.727Z,27.59
2018-03-04T08:42:53.948Z,28.93
2018-03-04T08:45:20.309Z,29.83
2018-03-04T08:47:46.525Z,30.87
2018-03-04T08:50:12.847Z,31.67
2018-03-04T08:52:39.090Z,32.55
2018-03-04T08:55:05.707Z,33.91
2018-03-04T08:57:32.019Z,34.46
2018-03-04T08:59:58.247Z,35.54
2018-03-04T09:02:24.480Z,35.13
2018-03-04T09:04:50.731Z,35.21
2018-03-04T09:07:16.989Z,35.25
2018-03-04T09:09:43.446Z,35.39
2018-03-04T09:12:09.675Z,35.77
2018-03-04T09:14:35.976Z,35.65
2018-03-04T09:17:02.294Z,35.58
2018-03-04T09:19:28.492Z,35.45
2018-03-04T09:21:54.817Z,35.32
2018-03-04T09:24:21.210Z,35.06
2018-03-04T09:26:47.437Z,34.91
2018-03-04T09:29:14.018Z,34.77
2018-03-04T09:31:40.256Z,34.87
2018-03-04T09:34:06.673Z,34.77
2018-03-04T09:36:32.909Z,34.48
2018-03-04T09:38:59.099Z,34.23
2018-03-04T09:41:25.333Z,33.89
2018-03-04T09:43:51.592Z,32.89
2018-03-04T09:46:17.924Z,31.90
2018-03-04T09:48:44.166Z,30.57
2018-03-04T09:51:10.428Z,30.00
2018-03-04T09:53:36.988Z,29.21
2018-03-04T09:56:03.200Z,28.16
2018-03-04T09:58:29.455Z,27.62
2018-03-04T10:00:55.692Z,27.63
2018-03-04T10:03:21.959Z,28.62
2018-03-04T10:05:48.313Z,28.69
2018-03-04T10:08:14.527Z,28.84
2018-03-04T10:10:40.780Z,28.68
2018-03-04T10:13:07.167Z,28.90
2018-03-04T10:15:33.399Z,28.91
2018-03-04T10:17:59.731Z,28.02
2018-03-04T10:20:26.035Z,27.27
2018-03-04T10:22:52.278Z,26.34
2018-03-04T10:25:18.503Z,25.83
2018-03-04T10:27:44.748Z,25.86
2018-03-04T10:30:10.968Z,25.74
2018-03-04T10:32:37.184Z,24.12
2018-03-04T10:35:03.456Z,24.21
2018-03-04T10:37:29.688Z,24.17
2018-03-04T10:39:55.912Z,25.13
2018-03-04T10:42:22.147Z,25.86
2018-03-04T10:44:48.351Z,26.16
2018-03-04T10:47:14.585Z,24.86
2018-03-04T10:49:40.832Z,23.56
2018-03-04T10:52:07.080Z,23.33
2018-03-04T10:54:33.461Z,23.20
2018-03-04T10:56:59.708Z,23.25
2018-03-04T10:59:26.156Z,22.39
2018-03-04T11:01:52.427Z,21.64
2018-03-04T11:04:18.738Z,21.63
2018-03-04T11:06:45.004Z,21.83
2018-03-04T11:09:11.247Z,21.76
2018-03-04T11:11:37.531Z,21.70
2018-03-04T11:14:03.765Z,20.73
2018-03-04T11:16:30.167Z,20.83
2018-03-04T11:18:56.499Z,19.95
2018-03-04T11:21:22.711Z,18.81
2018-03-04T11:23:49.046Z,18.28
2018-03-04T11:26:15.358Z,18.54
2018-03-04T11:28:41.618Z,17.78
2018-03-04T11:31:07.979Z,16.87
2018-03-04T11:33:34.255Z,16.58
2018-03-04T11:36:00.546Z,16.45
2018-03-04T11:38:27.103Z,15.86
2018-03-04T11:40:53.387Z,15.25
2018-03-04T11:43:19.672Z,15.21
2018-03-04T11:45:45.907Z,14.83
2018-03-04T11:48:12.167Z,14.46
2018-03-04T11:50:38.372Z,14.07
2018-03-04T11:53:04.595Z,13.69
2018-03-04T11:55:30.836Z,13.35
2018-03-04T11:57:57.057Z,13.19
2018-03-04T12:00:23.504Z,13.04
2018-03-04T12:02:49.760Z,12.99
2018-03-04T12:05:16.241Z,12.70
2018-03-04T12:07:42.475Z,12.54
2018-03-04T12:10:08.736Z,12.68
2018-03-04T12:12:34.963Z,12.99
2018-03-04T12:15:01.193Z,12.93
2018-03-04T12:17:27.436Z,12.92
2018-03-04T12:19:53.643Z,13.03
2018-03-04T12:22:19.854Z,12.59
2018-03-04T12:24:46.095Z,12.18
2018-03-04T12:27:12.670Z,12.01
2018-03-04T12:29:38.913Z,11.77
2018-03-04T12:32:05.304Z,11.50
2018-03-04T12:34:31.675Z,11.53
2018-03-04T12:36:57.892Z,11.38
2018-03-04T12:39:24.504Z,11.81
2018-03-04T12:41:50.808Z,11.62
2018-03-04T12:44:17.063Z,11.53
2018-03-04T12:46:43.586Z,11.54
2018-03-04T12:49:09.812Z,11.36
2018-03-04T12:51:36.225Z,11.75
2018-03-04T12:54:02.475Z,11.51
2018-03-04T12:56:28.704Z,11.30
2018-03-04T12:58:55.184Z,11.20
2018-03-04T13:01:21.462Z,11.48
2018-03-04T13:03:47.930Z,11.30
2018-03-04T13:06:14.175Z,11.31
2018-03-04T13:08:40.420Z,11.12
2018-03-04T13:11:06.876Z,11.03
2018-03-04T13:13:33.969Z,10.93
2018-03-04T13:16:00.523Z,10.74
2018-03-04T13:18:26.973Z,10.82
2018-03-04T13:20:53.203Z,10.96
2018-03-04T13:23:19.483Z,11.26
2018-03-04T13:25:45.709Z,11.09
2018-03-04T13:28:11.923Z,10.77
2018-03-04T13:30:38.227Z,10.91
2018-03-04T13:33:04.444Z,11.03
2018-03-04T13:35:30.659Z,11.27
2018-03-04T13:37:56.924Z,10.86
2018-03-04T13:40:23.176Z,10.67
2018-03-04T13:42:49.427Z,10.62
2018-03-04T13:45:16.690Z,10.67
2018-03-04T13:47:42.931Z,10.69
2018-03-04T13:50:09.144Z,10.96
2018-03-04T13:52:35.388Z,11.00
2018-03-04T13:55:01.694Z,11.03
2018-03-04T13:57:27.879Z,11.32
2018-03-04T13:59:54.292Z,11.30
2018-03-04T14:02:20.532Z,11.31
2018-03-04T14:04:46.749Z,11.41
2018-03-04T14:07:13.000Z,11.47
2018-03-04T14:09:39.244Z,11.77
2018-03-04T14:12:05.456Z,11.81
2018-03-04T14:14:31.753Z,12.41
2018-03-04T14:16:57.964Z,12.60
2018-03-04T14:19:24.194Z,12.76
2018-03-04T14:21:50.451Z,12.85
2018-03-04T14:24:16.759Z,12.97
2018-03-04T14:26:43.019Z,13.30
2018-03-04T14:29:09.283Z,13.68
2018-03-04T14:31:35.499Z,14.47
2018-03-04T14:34:01.922Z,15.33
2018-03-04T14:36:28.236Z,16.01
2018-03-04T14:38:54.471Z,16.29
2018-03-04T14:41:20.704Z,16.84
2018-03-04T14:43:47.058Z,17.22
2018-03-04T14:46:13.291Z,17.30
2018-03-04T14:48:39.515Z,17.24
2018-03-04T14:51:05.829Z,17.26
2018-03-04T14:53:32.036Z,17.25
2018-03-04T14:55:58.308Z,17.77
2018-03-04T14:58:24.560Z,17.78
2018-03-04T15:00:50.816Z,18.17
2018-03-04T15:03:17.028Z,18.17
2018-03-04T15:05:43.576Z,18.33
2018-03-04T15:08:09.876Z,18.56
2018-03-04T15:10:36.100Z,18.35
2018-03-04T15:13:02.399Z,18.28
2018-03-04T15:15:28.654Z,18.03
2018-03-04T15:20:27.747Z,18.21
2018-03-04T15:22:54.004Z,18.21
2018-03-04T15:25:20.242Z,18.75
2018-03-04T15:27:46.491Z,19.21
2018-03-04T15:30:12.740Z,18.83
2018-03-04T15:32:38.971Z,19.18
2018-03-04T15:35:05.250Z,19.38
2018-03-04T15:37:31.728Z,19.28
2018-03-04T15:39:57.977Z,19.61
2018-03-04T15:42:24.293Z,19.88
2018-03-04T15:44:50.540Z,19.75
2018-03-04T15:47:16.800Z,20.94
2018-03-04T15:49:43.128Z,22.81
2018-03-04T15:52:09.343Z,24.51
2018-03-04T15:54:35.578Z,26.16
2018-03-04T15:57:01.840Z,27.39
2018-03-04T15:59:28.068Z,28.24
2018-03-04T16:01:54.313Z,29.44
2018-03-04T16:04:20.576Z,30.62
2018-03-04T16:06:46.807Z,31.49
2018-03-04T16:09:13.066Z,31.97
2018-03-04T16:11:39.387Z,32.22
2018-03-04T16:14:05.674Z,32.51
2018-03-04T16:16:31.899Z,32.64
2018-03-04T16:18:58.148Z,32.96
2018-03-04T16:21:24.393Z,33.28
2018-03-04T16:23:50.608Z,33.33
2018-03-04T16:26:16.876Z,33.59
2018-03-04T16:28:43.159Z,34.22
2018-03-04T16:31:09.428Z,34.56
2018-03-04T16:33:35.750Z,34.78
2018-03-04T16:36:01.975Z,34.65
2018-03-04T16:38:28.212Z,34.78
2018-03-04T16:40:54.468Z,34.92
2018-03-04T16:43:20.723Z,35.33
2018-03-04T16:45:46.943Z,35.50
2018-03-04T16:48:13.185Z,35.76
2018-03-04T16:50:39.392Z,35.77
2018-03-04T16:53:05.681Z,36.16
2018-03-04T16:55:31.932Z,36.49
2018-03-04T16:57:58.200Z,36.76
2018-03-04T17:00:24.440Z,37.13
2018-03-04T17:02:50.745Z,37.44
2018-03-04T17:05:16.964Z,37.68
2018-03-04T17:07:43.196Z,38.04
2018-03-04T17:10:09.440Z,38.30
2018-03-04T17:12:35.751Z,38.79
2018-03-04T17:15:01.979Z,38.66
2018-03-04T17:17:28.255Z,39.12
2018-03-04T17:19:54.484Z,39.47
2018-03-04T17:22:20.799Z,39.40
2018-03-04T17:24:47.088Z,39.51
2018-03-04T17:27:13.347Z,39.45
2018-03-04T17:29:39.559Z,39.41
2018-03-04T17:32:05.795Z,39.51
2018-03-04T17:34:32.008Z,39.47
2018-03-04T17:36:58.250Z,39.72
2018-03-04T17:39:24.494Z,39.77
2018-03-04T17:41:50.732Z,40.09
2018-03-04T17:44:16.989Z,40.33
2018-03-04T17:46:43.323Z,40.37
2018-03-04T17:49:09.947Z,40.16
2018-03-04T17:51:36.239Z,39.91
2018-03-04T17:54:02.612Z,39.96
2018-03-04T17:56:28.851Z,39.88
2018-03-04T17:58:55.047Z,40.14
2018-03-04T18:01:21.468Z,40.27
2018-03-04T18:03:47.823Z,40.28
2018-03-04T18:06:14.066Z,40.44
2018-03-04T18:08:40.348Z,40.75
2018-03-04T18:11:06.564Z,40.86
2018-03-04T18:13:32.780Z,40.50
2018-03-04T18:15:59.016Z,40.18
2018-03-04T18:18:25.280Z,39.72
2018-03-04T18:20:51.728Z,39.18
2018-03-04T18:23:18.047Z,38.81
2018-03-04T18:25:44.281Z,38.65
2018-03-04T18:28:10.736Z,38.32
2018-03-04T18:30:36.981Z,37.98
2018-03-04T18:33:03.281Z,38.28
2018-03-04T18:35:29.551Z,38.12
2018-03-04T18:37:55.827Z,38.07
2018-03-04T18:40:22.230Z,37.79
2018-03-04T18:42:48.456Z,37.57
2018-03-04T18:45:14.740Z,37.62
2018-03-04T18:47:40.956Z,37.54
2018-03-04T18:50:07.165Z,37.53
2018-03-04T18:52:33.546Z,37.49
2018-03-04T18:54:59.796Z,37.52
2018-03-04T18:57:26.016Z,37.45
2018-03-04T18:59:52.464Z,37.29
2018-03-04T19:02:19.056Z,37.38
2018-03-04T19:04:45.286Z,37.62
2018-03-04T19:07:11.520Z,37.11
2018-03-04T19:09:37.740Z,36.77
2018-03-04T19:12:04.988Z,36.84
2018-03-04T19:14:31.256Z,36.73
2018-03-04T19:16:57.485Z,36.74
2018-03-04T19:19:23.759Z,36.67
2018-03-04T19:21:49.999Z,36.64
2018-03-04T19:24:16.225Z,38.18
2018-03-04T19:26:42.492Z,36.92
2018-03-04T19:29:08.765Z,36.92
2018-03-04T19:31:34.998Z,36.90
2018-03-04T19:34:01.228Z,37.05
2018-03-04T19:36:27.488Z,37.21
2018-03-04T19:38:53.700Z,37.25
2018-03-04T19:41:19.915Z,37.38
2018-03-04T19:43:46.167Z,37.67
2018-03-04T19:46:12.399Z,38.01
2018-03-04T19:48:38.608Z,38.21
2018-03-04T19:51:04.859Z,38.25
2018-03-04T19:53:31.087Z,38.32
2018-03-04T19:55:57.308Z,38.13
2018-03-04T19:58:23.566Z,38.00
2018-03-04T20:00:50.087Z,37.75
2018-03-04T20:03:16.333Z,37.66
2018-03-04T20:05:42.873Z,37.68
2018-03-04T20:08:09.107Z,37.66
2018-03-04T20:10:35.353Z,37.69
2018-03-04T20:13:01.915Z,37.65
2018-03-04T20:15:28.141Z,37.74
2018-03-04T20:17:54.609Z,37.78
2018-03-04T20:20:20.939Z,37.51
2018-03-04T20:22:47.163Z,37.36
2018-03-04T20:25:13.704Z,37.00
2018-03-04T20:27:39.992Z,36.65
2018-03-04T20:30:06.399Z,36.46
2018-03-04T20:32:32.628Z,36.32
2018-03-04T20:34:58.908Z,36.21
2018-03-04T20:37:25.445Z,36.08
2018-03-04T20:39:51.665Z,36.05
2018-03-04T20:42:18.020Z,35.93
2018-03-04T20:44:44.387Z,35.90
2018-03-04T20:47:10.607Z,35.79
2018-03-04T20:49:37.216Z,35.81
2018-03-04T20:52:03.479Z,35.67
2018-03-04T20:54:29.733Z,35.50
2018-03-04T20:56:56.163Z,35.28
2018-03-04T20:59:22.374Z,35.33
2018-03-04T21:01:49.794Z,35.65
2018-03-04T21:04:16.036Z,35.87
2018-03-04T21:06:42.435Z,35.93
2018-03-04T21:09:08.672Z,35.96
2018-03-04T21:11:34.967Z,36.01
2018-03-04T21:14:01.517Z,35.98
2018-03-04T21:16:27.710Z,36.45
2018-03-04T21:18:54.048Z,36.51
2018-03-04T21:21:20.411Z,36.38
2018-03-04T21:23:46.616Z,36.38
2018-03-04T21:26:13.236Z,36.24
2018-03-04T21:28:39.500Z,36.16
2018-03-04T21:31:05.710Z,36.29
2018-03-04T21:33:32.139Z,36.32
2018-03-04T21:35:58.352Z,36.28
2018-03-04T21:38:24.795Z,36.09
2018-03-04T21:40:51.080Z,36.08
2018-03-04T21:43:17.296Z,36.19
2018-03-04T21:45:43.820Z,36.26
2018-03-04T21:48:10.076Z,36.27
2018-03-04T21:50:36.526Z,36.37
2018-03-04T21:53:02.853Z,36.40
2018-03-04T21:55:29.095Z,36.50
2018-03-04T21:57:55.603Z,36.46
2018-03-04T22:00:21.840Z,36.40
2018-03-04T22:02:48.190Z,36.23
2018-03-04T22:05:14.564Z,36.31
2018-03-04T22:07:40.779Z,36.29
2018-03-04T22:10:07.511Z,36.30
2018-03-04T22:12:33.735Z,36.39
2018-03-04T22:15:00.765Z,36.79
2018-03-04T22:17:27.048Z,36.76
2018-03-04T22:19:53.262Z,36.96
2018-03-04T22:22:19.612Z,37.10
2018-03-04T22:24:45.859Z,37.32
2018-03-04T22:27:12.216Z,37.27
2018-03-04T22:29:38.463Z,37.34
2018-03-04T22:32:04.711Z,37.23
2018-03-04T22:34:30.936Z,37.19
2018-03-04T22:36:57.152Z,37.26
2018-03-04T22:39:23.403Z,37.27
2018-03-04T22:41:49.616Z,37.23
2018-03-04T22:44:15.853Z,37.37
2018-03-04T22:46:42.112Z,37.59
2018-03-04T22:49:09.432Z,37.49
2018-03-04T22:51:35.658Z,37.70
2018-03-04T22:54:02.047Z,37.69
2018-03-04T22:56:28.295Z,37.55
2018-03-04T22:58:55.244Z,37.75
2018-03-04T23:01:21.547Z,37.75
2018-03-04T23:03:47.804Z,38.04
2018-03-04T23:06:14.035Z,37.86
2018-03-04T23:08:40.291Z,37.50
2018-03-04T23:11:06.532Z,37.65
2018-03-04T23:13:32.747Z,37.82
2018-03-04T23:15:59.008Z,37.87
2018-03-04T23:18:25.214Z,37.86
2018-03-04T23:20:51.456Z,38.23
2018-03-04T23:23:17.708Z,38.50
2018-03-04T23:25:43.931Z,38.51
2018-03-04T23:28:10.151Z,38.57
2018-03-04T23:30:36.424Z,38.86
2018-03-04T23:33:02.827Z,39.00
2018-03-04T23:35:29.056Z,39.31
2018-03-04T23:37:55.316Z,39.15
2018-03-04T23:40:21.557Z,39.08
2018-03-04T23:42:47.771Z,39.51
2018-03-04T23:45:14.206Z,39.45
2018-03-04T23:47:40.424Z,39.51
2018-03-04T23:50:06.631Z,39.49
2018-03-04T23:52:32.876Z,39.52
2018-03-04T23:54:59.090Z,39.54
2018-03-04T23:57:25.300Z,39.42
2018-03-04T23:59:51.543Z,39.34
